Flight Track Log - Related Links

Times and Time Zones

All times are in EDT time to prevent confusion due to time zone crossing. See the AWE1940 flight status page for this flight to view local times or setup timezone preferences in your user account.

Time Position Orientation Groundspeed Altitude Reporting Facility
EDT Latitude Longitude Course Direction KTS MPH feet Rate Location/Type
Sat 10:41:44 PM 35.1867 -80.9333 72° East 169 194 1,900  Level Atlanta Center
Sat 10:42:57 PM 35.1211 -80.8978 156° South 243 280 4,200 2,317 Climbing Atlanta Center
Sat 10:44:00 PM 35.1629 -80.5914 29° Northeast  Level FlightAware Approximate
Sat 10:44:09 PM 35.1058 -80.7992 101° East 305 351 7,500  Level Atlanta Center
Sat 10:44:45 PM 35.1336 -80.7447 58° Northeast 327 376 9,200 2,125 Climbing Atlanta Center
Sat 10:45:00 PM 35.2753 -80.5129 30° Northeast  Level FlightAware Approximate
Sat 10:45:45 PM 35.1792 -80.6517 59° Northeast 321 369 10,900  Level Atlanta Center
Sat 10:46:00 PM 35.3491 -80.4069 72° East  Level FlightAware Approximate
Sat 10:46:45 PM 35.2367 -80.5422 57° Northeast 347 399 13,100  Level Atlanta Center
Sat 10:47:45 PM 35.2939 -80.4281 58° Northeast 377 434 15,700 2,195 Climbing Atlanta Center
Sat 10:50:10 PM 35.4333 -80.1372 59° Northeast 403 464 20,600 1,893 Climbing Washington Center
Sat 10:51:11 PM 35.4672 -80.0142 71° East 408 470 22,200 1,525 Climbing Washington Center
Sat 10:52:12 PM 35.5039 -79.8656 73° East 428 493 23,700 1,513 Climbing Washington Center
Sat 10:53:10 PM 35.5403 -79.7169 73° East 438 504 25,200 1,627 Climbing Washington Center
Sat 10:54:10 PM 35.5836 -79.5508 72° East 456 525 26,900 893 Climbing Washington Center
Sat 10:55:11 PM 35.6147 -79.4269 73° East 465 535 27,000 645 Climbing Washington Center
Sat 10:56:11 PM 35.6822 -79.2692 62° Northeast 470 541 28,200 1,190 Climbing Washington Center
Sat 10:57:12 PM 35.7431 -79.1211 63° Northeast 476 548 29,400 1,140 Climbing Washington Center
Sat 10:58:12 PM 35.8083 -78.9575 64° Northeast 476 548 30,500 814 Climbing Washington Center
Sat 10:59:10 PM 35.8711 -78.8011 64° Northeast 486 559 31,000 763 Climbing Washington Center
Sat 11:00:10 PM 35.9394 -78.6553 60° Northeast 486 559 32,000 1,000 Climbing Washington Center
Sat 11:01:10 PM 36.0100 -78.5089 59° Northeast 492 566 33,000 496 Climbing Washington Center
Sat 11:02:11 PM 36.0822 -78.3600 59° Northeast 492 566 33,000  Level Washington Center
Sat 11:03:12 PM 36.1525 -78.2158 59° Northeast 492 566 33,000  Level Washington Center
Sat 11:04:10 PM 36.2244 -78.0664 59° Northeast 497 572 33,000  Level Washington Center
Sat 11:05:11 PM 36.2942 -77.9192 60° Northeast 492 566 33,000  Level Washington Center
Sat 11:06:12 PM 36.3658 -77.7692 59° Northeast 492 566 33,000  Level Washington Center
Sat 11:07:13 PM 36.4222 -77.6519 59° Northeast 492 566 33,000  Level Washington Center
Sat 11:08:11 PM 36.4936 -77.4858 62° Northeast 492 566 33,000  Level Washington Center
Sat 11:09:11 PM 36.5647 -77.3375 59° Northeast 498 573 33,000  Level Washington Center
Sat 11:10:12 PM 36.6336 -77.1864 60° Northeast 498 573 33,000  Level Washington Center
Sat 11:11:10 PM 36.7044 -77.0400 59° Northeast 498 573 33,000  Level Washington Center
Sat 11:12:10 PM 36.8247 -76.9178 39° Northeast 499 574 33,000  Level Washington Center
Sat 11:13:11 PM 36.9364 -76.8131 37° Northeast 498 573 33,000  Level Washington Center
Sat 11:14:11 PM 37.0481 -76.7108 36° Northeast 498 573 33,000  Level Washington Center
Sat 11:15:10 PM 37.1636 -76.6083 35° Northeast 498 573 33,000  Level Washington Center
Sat 11:16:11 PM 37.2750 -76.5028 37° Northeast 503 579 33,000  Level Washington Center
Sat 11:17:11 PM 37.3944 -76.4153 30° Northeast 498 573 33,000  Level Washington Center
Sat 11:18:12 PM 37.5161 -76.3222 31° Northeast 498 573 33,000  Level Washington Center
Sat 11:19:12 PM 37.6250 -76.2369 32° Northeast 503 579 33,000  Level Washington Center
Sat 11:20:10 PM 37.7569 -76.1433 29° Northeast 503 579 33,000  Level Washington Center
Sat 11:21:10 PM 37.8658 -76.0547 33° Northeast 509 586 33,000  Level Washington Center
Sat 11:22:11 PM 37.9850 -75.9581 33° Northeast 504 580 33,000  Level Washington Center
Sat 11:23:12 PM 38.1061 -75.8636 32° Northeast 504 580 33,000  Level Washington Center
Sat 11:24:10 PM 38.2272 -75.7714 31° Northeast 504 580 33,000  Level Washington Center
Sat 11:25:11 PM 38.3483 -75.6792 31° Northeast 504 580 33,000  Level Washington Center
Sat 11:26:12 PM 38.4672 -75.5811 33° Northeast 504 580 33,000  Level Washington Center
Sat 11:27:11 PM 38.5881 -75.4908 30° Northeast 504 580 33,000  Level Washington Center
Sat 11:28:12 PM 38.7089 -75.3947 32° Northeast 504 580 33,000  Level Washington Center
Sat 11:29:10 PM 38.8419 -75.2878 32° Northeast 510 587 33,000  Level Washington Center
Sat 11:30:11 PM 38.9625 -75.1911 32° Northeast 510 587 33,000  Level Washington Center
Sat 11:31:11 PM 39.0831 -75.0994 31° Northeast 510 587 33,000  Level Washington Center
Sat 11:32:12 PM 39.2036 -74.9942 34° Northeast 510 587 33,000  Level Washington Center
Sat 11:33:51 PM 39.3950 -74.8408 32° Northeast 514 592 33,000  Level New York Center
Sat 11:34:51 PM 39.5131 -74.7428 33° Northeast 509 586 33,000  Level New York Center
Sat 11:35:51 PM 39.6461 -74.6317 33° Northeast 516 594 33,000  Level New York Center
Sat 11:36:52 PM 39.7664 -74.5814 18° North 504 580 33,000  Level New York Center
Sat 11:37:51 PM 39.9200 -74.5411 11° North 509 586 33,000  Level New York Center
Sat 11:38:51 PM 40.0458 -74.5128 10° North 509 586 33,000  Level New York Center
Sat 11:39:51 PM 40.1889 -74.4744 12° North 509 586 33,000 -68 Level New York Center
Sat 11:41:48 PM 40.4597 -74.4011 12° North 493 567 32,800 -407 Descending Boston Center
Sat 11:42:48 PM 40.6000 -74.3672 10° North 498 573 31,800 -1,050 Descending Boston Center
Sat 11:43:48 PM 40.7569 -74.3333 North 509 586 30,700 -1,000 Descending Boston Center
Sat 11:44:48 PM 40.8950 -74.2961 12° North 509 586 29,800 -850 Descending Boston Center
Sat 11:45:48 PM 41.0039 -74.2664 12° North 503 579 29,000 -850 Descending Boston Center
Sat 11:46:48 PM 41.1544 -74.2264 11° North 498 573 28,100 -1,000 Descending Boston Center
Sat 11:47:48 PM 41.3031 -74.1892 11° North 505 581 27,000 -1,050 Descending Boston Center
Sat 11:48:48 PM 41.4433 -74.1514 11° North 500 575 26,000 -1,182 Descending Boston Center
Sat 11:50:00 PM 41.5878 -74.1164 10° North 494 568 24,400 -1,818 Descending Boston Center
Sat 11:51:00 PM 41.7111 -74.0808 12° North 470 541 22,000 -2,300 Descending Boston Center
Sat 11:52:00 PM 41.8283 -74.0533 10° North 443 510 19,800 -2,400 Descending Boston Center
Sat 11:53:00 PM 41.9433 -74.0197 12° North 423 487 17,200 -2,500 Descending Boston Center
Sat 11:54:00 PM 42.0647 -73.9839 12° North 406 467 14,800 -2,200 Descending Boston Center
Sat 11:55:00 PM 42.1631 -73.9608 10° North 399 459 12,800 -2,050 Descending Boston Center
Sat 11:56:00 PM 42.2756 -73.9553 North 376 433 10,700 -1,650 Descending Boston Center
Sat 11:57:00 PM 42.3569 -73.9572 359° North 342 394 9,500 -1,750 Descending Boston Center
Sat 11:58:00 PM 42.4486 -73.9511 North 306 352 7,200 -1,955 Descending Boston Center
Sat 11:59:12 PM 42.5447 -73.9506 360° North 288 331 5,200 -1,273 Descending Boston Center
Sun 12:00:12 AM 42.6133 -73.9494 North 283 326 4,400 -950 Descending Boston Center
Sun 12:01:12 AM 42.6842 -73.9483 North 263 303 3,300 -700 Descending Boston Center
Sun 12:02:12 AM 42.7489 -73.9500 359° North 247 284 3,000 -250 Descending Boston Center
Sun 12:03:12 AM 42.8094 -73.9428 North 229 264 2,800 -500 Descending Boston Center
Sun 12:04:12 AM 42.8722 -73.9133 19° North 217 250 2,000 -345 Descending Boston Center
Sun 12:05:31 AM 42.8983 -73.8233 68° East 200 230 2,000 -46 Level Boston Center
Sun 12:06:23 AM 42.8653 -73.8139 168° South 174 200 1,900 -375 Descending Boston Center
Sun 12:07:23 AM 42.8194 -73.8100 176° South 148 170 1,300 -645 Descending Boston Center
Sun 12:08:24 AM 42.7778 -73.8092 179° South 141 162 600 -689 Descending Boston Center

Login

Don't have an account? Register now (free) for customized features, flight alerts, and more!